»·PEaware :: N441PW KDTW-CYZF

N441PW :: KDTW-CYZF

FLIGHT INFORMATION

Flight Status: Arrived
Operator: Privately registered:
United States
More flights under this callsign
Pilot: Stacy K. (11621)
Aircraft: CESSNA 404 TITAN
(C404)
More flights by this aircraft type
Origin: KDTW Detroit Metro Wayne Co
United States
Destination: CYZF Yellowknife
Canada
More flights between these airports :: More routes between these airports
Route: SVM MB CGG CVX ISQ CM YQT XL YRL YPM IV 4W 5W YL ZWL YSF SM FR ZF
File this flight plan on PilotEdge
Remarks:
Altitude:
(Current/Filed)
10,500ft
Speed:
(Current/Filed)
190kts
Departed: 04-Jul-19 09:11 AM
Arrived: 04-Jul-19 06:09 PM
Distance/Time
Traveled:
1636nm/8:58
Distance/Time
To Go:
Arrived

Flight Plot

Page will automatically refresh every two minutes.

Flight plan parsing failed; only flown route is shown


Map Options




Map Legend


Flown Route
Filed Route
Departure Airport
Arrival Airport
Navaid (VOR, NDB)
Fix

Horizontal Profiles

Position Reports

Time Latitude Longitude Heading Altitude Ground
Speed
04-Jul-19 08:49 42.210205 -83.336972 129 650ft 0kts
04-Jul-19 08:50 42.210205 -83.336972 129 650ft 0kts
04-Jul-19 08:51 42.210205 -83.336972 129 650ft 0kts
04-Jul-19 08:52 42.210205 -83.336972 129 650ft 0kts
04-Jul-19 08:53 42.210205 -83.336972 129 650ft 0kts
04-Jul-19 08:54 42.210205 -83.336972 129 650ft 0kts
04-Jul-19 08:55 42.210205 -83.336972 129 650ft 0kts
04-Jul-19 08:56 42.210205 -83.336972 129 650ft 0kts
04-Jul-19 08:57 42.210205 -83.336972 129 650ft 0kts
04-Jul-19 08:58 42.210205 -83.336972 129 650ft 0kts
04-Jul-19 08:59 42.210205 -83.336972 129 650ft 0kts
04-Jul-19 09:00 42.210205 -83.336972 129 650ft 0kts
04-Jul-19 09:01 42.210497 -83.337429 331 650ft 9kts
04-Jul-19 09:02 42.212425 -83.335447 285 650ft 13kts
04-Jul-19 09:03 42.210302 -83.338477 214 650ft 13kts
04-Jul-19 09:04 42.208914 -83.339467 207 650ft 0kts
04-Jul-19 09:05 42.209784 -83.342720 299 650ft 12kts
04-Jul-19 09:06 42.206538 -83.346295 210 650ft 17kts
04-Jul-19 09:07 42.203537 -83.348534 206 650ft 16kts
04-Jul-19 09:08 42.199497 -83.351480 208 650ft 20kts
04-Jul-19 09:09 42.196027 -83.352353 118 650ft 0kts
04-Jul-19 09:10 42.199478 -83.348883 30 651ft 80kts
04-Jul-19 09:11 42.229324 -83.341343 309 1520ft 153kts
04-Jul-19 09:12 42.249131 -83.395201 309 2455ft 166kts
04-Jul-19 09:13 42.282568 -83.439159 316 3265ft 169kts
04-Jul-19 09:14 42.317966 -83.482516 316 3987ft 174kts
04-Jul-19 09:15 42.354005 -83.526754 316 4690ft 174kts
04-Jul-19 09:16 42.389896 -83.570863 316 5389ft 173kts
04-Jul-19 09:17 42.430761 -83.604774 339 6094ft 177kts
04-Jul-19 09:18 42.477636 -83.627046 339 6795ft 178kts
04-Jul-19 09:19 42.524133 -83.649378 339 7489ft 177kts
04-Jul-19 09:20 42.570478 -83.671717 339 8188ft 175kts
04-Jul-19 09:21 42.616298 -83.693865 339 8885ft 174kts
04-Jul-19 09:22 42.662879 -83.716406 339 9625ft 184kts
04-Jul-19 09:23 42.710018 -83.739212 339 10280ft 175kts
04-Jul-19 09:24 42.757655 -83.762343 338 10502ft 190kts
04-Jul-19 09:25 42.811117 -83.788327 339 10491ft 215kts
04-Jul-19 09:26 42.866486 -83.815219 339 10499ft 208kts
04-Jul-19 09:27 42.920900 -83.841773 339 10498ft 208kts
04-Jul-19 09:28 42.975280 -83.868312 339 10499ft 207kts
04-Jul-19 09:29 43.029643 -83.894931 339 10494ft 207kts
04-Jul-19 09:30 43.084154 -83.921678 338 10499ft 208kts
04-Jul-19 09:31 43.138505 -83.948405 338 10497ft 208kts
04-Jul-19 09:32 43.193001 -83.975217 338 10494ft 208kts
04-Jul-19 09:33 43.247368 -84.001997 338 10492ft 207kts
04-Jul-19 09:34 43.301756 -84.028938 338 10489ft 207kts
04-Jul-19 09:35 43.356320 -84.055995 338 10490ft 212kts
04-Jul-19 09:36 43.411266 -84.083263 338 10487ft 208kts
04-Jul-19 09:37 43.466150 -84.110573 338 10487ft 213kts
04-Jul-19 09:38 43.521673 -84.138227 337 10480ft 215kts
04-Jul-19 09:39 43.577601 -84.166123 338 10480ft 216kts
04-Jul-19 09:40 43.632593 -84.193621 337 10491ft 208kts
04-Jul-19 09:41 43.687336 -84.221138 338 10474ft 214kts
04-Jul-19 09:42 43.741846 -84.248465 337 10491ft 206kts
04-Jul-19 09:43 43.795677 -84.275477 337 10497ft 205kts
04-Jul-19 09:44 43.849178 -84.302501 337 10500ft 205kts
04-Jul-19 09:45 43.902829 -84.329594 337 10503ft 205kts
04-Jul-19 09:46 43.956444 -84.356653 337 10506ft 204kts
04-Jul-19 09:47 44.009945 -84.383831 337 10502ft 205kts
04-Jul-19 09:48 44.063598 -84.411016 337 10505ft 205kts
04-Jul-19 09:49 44.117019 -84.438171 337 10502ft 205kts
04-Jul-19 09:50 44.170674 -84.465537 337 10505ft 205kts
04-Jul-19 09:51 44.224214 -84.492871 337 10510ft 205kts
04-Jul-19 09:52 44.278803 -84.520828 337 10499ft 214kts
04-Jul-19 09:53 44.332889 -84.548530 337 10500ft 206kts
04-Jul-19 09:54 44.386683 -84.576175 337 10500ft 205kts
04-Jul-19 09:55 44.440419 -84.603846 337 10499ft 205kts
04-Jul-19 09:56 44.495003 -84.632027 337 10479ft 214kts
04-Jul-19 09:57 44.549432 -84.660122 337 10492ft 206kts
04-Jul-19 09:58 44.603209 -84.687989 337 10485ft 206kts
04-Jul-19 09:59 44.657068 -84.715934 337 10482ft 206kts
04-Jul-19 10:00 44.708876 -84.752132 326 10461ft 213kts
04-Jul-19 10:01 44.758328 -84.794927 326 10475ft 208kts
04-Jul-19 10:02 44.807217 -84.837261 326 10481ft 205kts
04-Jul-19 10:03 44.856247 -84.879786 326 10489ft 209kts
04-Jul-19 10:04 44.905173 -84.922272 326 10498ft 205kts
04-Jul-19 10:05 44.953805 -84.964607 325 10495ft 205kts
04-Jul-19 10:06 45.002490 -85.007076 325 10487ft 206kts
04-Jul-19 10:07 45.051187 -85.049636 325 10496ft 206kts
04-Jul-19 10:08 45.099969 -85.092361 325 10496ft 206kts
04-Jul-19 10:09 45.148877 -85.135276 325 10502ft 206kts
04-Jul-19 10:10 45.197714 -85.178223 325 10506ft 206kts
04-Jul-19 10:11 45.246427 -85.221141 324 10506ft 205kts
04-Jul-19 10:12 45.295129 -85.264236 323 10497ft 206kts
04-Jul-19 10:13 45.337743 -85.317294 313 10499ft 203kts
04-Jul-19 10:14 45.379188 -85.372126 313 10494ft 203kts
04-Jul-19 10:15 45.420692 -85.427025 313 10496ft 203kts
04-Jul-19 10:16 45.462032 -85.481836 313 10493ft 203kts
04-Jul-19 10:17 45.503519 -85.536947 313 10487ft 203kts
04-Jul-19 10:18 45.544927 -85.592075 313 10483ft 203kts
04-Jul-19 10:19 45.586228 -85.647200 312 10481ft 203kts
04-Jul-19 10:20 45.627512 -85.702393 312 10480ft 203kts
04-Jul-19 10:22 45.668914 -85.757809 312 10479ft 203kts
04-Jul-19 10:23 45.709696 -85.812563 312 10497ft 203kts
04-Jul-19 10:24 45.751308 -85.868562 312 10496ft 203kts
04-Jul-19 10:25 45.792510 -85.924118 312 10493ft 203kts
04-Jul-19 10:26 45.833799 -85.979886 312 10491ft 203kts
04-Jul-19 10:27 45.874930 -86.035599 312 10490ft 203kts
04-Jul-19 10:28 45.916067 -86.091425 312 10489ft 203kts
04-Jul-19 10:29 45.957183 -86.147364 312 10489ft 203kts
04-Jul-19 10:30 45.998275 -86.203115 312 10488ft 203kts
04-Jul-19 10:31 46.040356 -86.259882 312 10468ft 211kts
04-Jul-19 10:32 46.082130 -86.316204 312 10485ft 204kts
04-Jul-19 10:33 46.123489 -86.372232 312 10479ft 203kts
04-Jul-19 10:34 46.164670 -86.428183 312 10472ft 203kts
04-Jul-19 10:35 46.205857 -86.484287 312 10462ft 204kts
04-Jul-19 10:36 46.247108 -86.540478 312 10454ft 203kts
04-Jul-19 10:37 46.288321 -86.596709 312 10446ft 203kts
04-Jul-19 10:38 46.330013 -86.653897 312 10421ft 211kts
04-Jul-19 10:39 46.371660 -86.711021 312 10441ft 204kts
04-Jul-19 10:40 46.412896 -86.767842 312 10441ft 204kts
04-Jul-19 10:40 46.447068 -86.814951 311 10440ft 204kts
04-Jul-19 10:42 46.494986 -86.881201 311 10442ft 203kts
04-Jul-19 10:42 46.529063 -86.928394 311 10444ft 203kts
04-Jul-19 10:43 46.569980 -86.985163 311 10499ft 202kts
04-Jul-19 10:45 46.617519 -87.051293 311 10502ft 203kts
04-Jul-19 10:45 46.651646 -87.098844 311 10504ft 203kts
04-Jul-19 10:46 46.692549 -87.155970 311 10503ft 203kts
04-Jul-19 10:48 46.740108 -87.222554 311 10502ft 203kts
04-Jul-19 10:48 46.774017 -87.270144 311 10499ft 203kts
04-Jul-19 10:49 46.814842 -87.327548 311 10497ft 203kts
04-Jul-19 10:50 46.855394 -87.384679 311 10495ft 203kts
04-Jul-19 10:51 46.896081 -87.442149 311 10494ft 203kts
04-Jul-19 10:52 46.936731 -87.499679 311 10499ft 203kts
04-Jul-19 10:53 46.977187 -87.557076 311 10495ft 203kts
04-Jul-19 10:54 47.017906 -87.614964 311 10491ft 203kts
04-Jul-19 10:55 47.058452 -87.672740 310 10487ft 203kts
04-Jul-19 10:56 47.098888 -87.730508 310 10480ft 203kts
04-Jul-19 10:57 47.139374 -87.788439 310 10478ft 203kts
04-Jul-19 10:58 47.179897 -87.846575 310 10476ft 203kts
04-Jul-19 10:59 47.220250 -87.904606 310 10474ft 203kts
04-Jul-19 11:00 47.260605 -87.962776 310 10473ft 203kts
04-Jul-19 11:01 47.300888 -88.020931 310 10473ft 202kts
04-Jul-19 11:02 47.341067 -88.078934 310 10472ft 202kts
04-Jul-19 11:03 47.381119 -88.137054 310 10477ft 201kts
04-Jul-19 11:04 47.421174 -88.195336 310 10472ft 202kts
04-Jul-19 11:05 47.461236 -88.253725 310 10474ft 202kts
04-Jul-19 11:06 47.501224 -88.312269 310 10465ft 202kts
04-Jul-19 11:07 47.541007 -88.370576 310 10465ft 201kts
04-Jul-19 11:08 47.580868 -88.429083 310 10486ft 201kts
04-Jul-19 11:09 47.620727 -88.487582 310 10499ft 201kts
04-Jul-19 11:10 47.660452 -88.546159 310 10505ft 202kts
04-Jul-19 11:11 47.699999 -88.604629 309 10498ft 200kts
04-Jul-19 11:12 47.739484 -88.663160 309 10497ft 200kts
04-Jul-19 11:13 47.778909 -88.721632 309 10492ft 200kts
04-Jul-19 11:14 47.818207 -88.780129 309 10489ft 200kts
04-Jul-19 11:15 47.857549 -88.838768 310 10488ft 199kts
04-Jul-19 11:16 47.896689 -88.897292 310 10485ft 199kts
04-Jul-19 11:17 47.935834 -88.955917 309 10486ft 199kts
04-Jul-19 11:18 47.974884 -89.014729 309 10480ft 199kts
04-Jul-19 11:19 48.013920 -89.073256 309 10478ft 198kts
04-Jul-19 11:20 48.052569 -89.131549 309 10478ft 197kts
04-Jul-19 11:21 48.091071 -89.189987 309 10486ft 196kts
04-Jul-19 11:22 48.129165 -89.248760 310 10498ft 197kts
04-Jul-19 11:23 48.167731 -89.306056 310 10498ft 197kts
04-Jul-19 11:24 48.206568 -89.364396 308 10504ft 195kts
04-Jul-19 11:25 48.244719 -89.423210 309 10497ft 196kts
04-Jul-19 11:26 48.285810 -89.477316 314 10499ft 197kts
04-Jul-19 11:27 48.327780 -89.530170 314 10498ft 196kts
04-Jul-19 11:28 48.369707 -89.583104 314 10500ft 197kts
04-Jul-19 11:29 48.411662 -89.636106 314 10502ft 196kts
04-Jul-19 11:30 48.453874 -89.689212 315 10504ft 197kts
04-Jul-19 11:31 48.495660 -89.742572 314 10495ft 197kts
04-Jul-19 11:32 48.537573 -89.796142 314 10499ft 197kts
04-Jul-19 11:33 48.579537 -89.849379 314 10500ft 197kts
04-Jul-19 11:34 48.621456 -89.902580 314 10498ft 197kts
04-Jul-19 11:35 48.663264 -89.956331 313 10505ft 197kts
04-Jul-19 11:36 48.704956 -90.010134 314 10502ft 196kts
04-Jul-19 11:37 48.746650 -90.063834 314 10511ft 197kts
04-Jul-19 11:38 48.788297 -90.117514 313 10520ft 195kts
04-Jul-19 11:39 48.829705 -90.170888 314 10516ft 195kts
04-Jul-19 11:40 48.870978 -90.224432 313 10517ft 195kts
04-Jul-19 11:41 48.912330 -90.277985 313 10513ft 195kts
04-Jul-19 11:42 48.953489 -90.331519 313 10515ft 195kts
04-Jul-19 11:43 48.994607 -90.385290 312 10532ft 193kts
04-Jul-19 11:44 49.035570 -90.438892 313 10540ft 194kts
04-Jul-19 11:45 49.076588 -90.492681 313 10541ft 194kts
04-Jul-19 11:46 49.117587 -90.546288 312 10540ft 194kts
04-Jul-19 11:47 49.158393 -90.600036 312 10541ft 193kts
04-Jul-19 11:48 49.199174 -90.653700 312 10543ft 193kts
04-Jul-19 11:49 49.239991 -90.707731 312 10543ft 193kts
04-Jul-19 11:50 49.280647 -90.761564 312 10543ft 193kts
04-Jul-19 11:51 49.321260 -90.815524 312 10542ft 193kts
04-Jul-19 11:52 49.361867 -90.869360 312 10545ft 193kts
04-Jul-19 11:53 49.402340 -90.923526 312 10544ft 193kts
04-Jul-19 11:54 49.442882 -90.977769 312 10544ft 193kts
04-Jul-19 11:55 49.483466 -91.032091 312 10546ft 193kts
04-Jul-19 11:56 49.523928 -91.086485 311 10509ft 194kts
04-Jul-19 11:57 49.564543 -91.141115 311 10504ft 192kts
04-Jul-19 11:58 49.604889 -91.195545 311 10507ft 192kts
04-Jul-19 11:59 49.645123 -91.249969 311 10509ft 192kts
04-Jul-19 12:00 49.685358 -91.304643 311 10500ft 192kts
04-Jul-19 12:01 49.725688 -91.359387 311 10499ft 192kts
04-Jul-19 12:02 49.765812 -91.414000 311 10502ft 192kts
04-Jul-19 12:03 49.805870 -91.468677 311 10500ft 192kts
04-Jul-19 12:04 49.845845 -91.523335 311 10500ft 192kts
04-Jul-19 12:05 49.885957 -91.578245 311 10499ft 192kts
04-Jul-19 12:06 49.926022 -91.633353 311 10499ft 191kts
04-Jul-19 12:07 49.965856 -91.688285 311 10500ft 192kts
04-Jul-19 12:08 49.996864 -91.731091 311 10500ft 192kts
04-Jul-19 12:09 50.038433 -91.788726 313 9887ft 205kts
04-Jul-19 12:10 50.081591 -91.848487 315 9203ft 209kts
04-Jul-19 12:11 50.124050 -91.910590 308 8521ft 209kts
04-Jul-19 12:12 50.159590 -91.977568 307 8499ft 195kts
04-Jul-19 12:13 50.193980 -92.042810 307 8501ft 194kts
04-Jul-19 12:14 50.228181 -92.107739 307 8501ft 193kts
04-Jul-19 12:15 50.262343 -92.172745 307 8500ft 193kts
04-Jul-19 12:16 50.296435 -92.237784 307 8497ft 194kts
04-Jul-19 12:17 50.330677 -92.303265 307 8496ft 194kts
04-Jul-19 12:18 50.364949 -92.368969 307 8497ft 195kts
04-Jul-19 12:19 50.399256 -92.434903 307 8494ft 194kts
04-Jul-19 12:20 50.433455 -92.500799 307 8493ft 194kts
04-Jul-19 12:21 50.467509 -92.566591 307 8487ft 194kts
04-Jul-19 12:22 50.501620 -92.632634 307 8486ft 194kts
04-Jul-19 12:23 50.535535 -92.698497 307 8484ft 194kts
04-Jul-19 12:24 50.569499 -92.764614 307 8483ft 194kts
04-Jul-19 12:25 50.603508 -92.830987 307 8482ft 194kts
04-Jul-19 12:26 50.637296 -92.897104 306 8485ft 194kts
04-Jul-19 12:27 50.671144 -92.963500 306 8498ft 194kts
04-Jul-19 12:28 50.704724 -93.029528 306 8496ft 193kts
04-Jul-19 12:29 50.738401 -93.095906 306 8495ft 193kts
04-Jul-19 12:30 50.771935 -93.162206 306 8499ft 193kts
04-Jul-19 12:31 50.805454 -93.228646 306 8499ft 193kts
04-Jul-19 12:32 50.838888 -93.295066 306 8497ft 192kts
04-Jul-19 12:33 50.872234 -93.361470 306 8494ft 192kts
04-Jul-19 12:34 50.905447 -93.427798 306 8494ft 192kts
04-Jul-19 12:35 50.938656 -93.494212 306 8491ft 192kts
04-Jul-19 12:36 50.971923 -93.561069 306 8491ft 193kts
04-Jul-19 12:37 51.005008 -93.627710 306 8499ft 192kts
04-Jul-19 12:38 51.038167 -93.694855 305 8499ft 192kts
04-Jul-19 12:39 51.073302 -93.758626 326 8502ft 195kts
04-Jul-19 12:41 51.127245 -93.777671 346 8499ft 199kts
04-Jul-19 12:42 51.181928 -93.792688 346 8497ft 199kts
04-Jul-19 12:43 51.236815 -93.807896 346 8498ft 200kts
04-Jul-19 12:44 51.291569 -93.823162 346 8499ft 200kts
04-Jul-19 12:45 51.346633 -93.838536 346 8500ft 200kts
04-Jul-19 12:46 51.401559 -93.853968 346 8499ft 200kts
04-Jul-19 12:47 51.456486 -93.869234 346 8498ft 200kts
04-Jul-19 12:48 51.511334 -93.884436 346 8497ft 200kts
04-Jul-19 12:49 51.566331 -93.900191 346 8494ft 201kts
04-Jul-19 12:50 51.621493 -93.915814 346 8497ft 201kts
04-Jul-19 12:51 51.676813 -93.931503 345 8496ft 201kts
04-Jul-19 12:52 51.731957 -93.947273 346 8491ft 201kts
04-Jul-19 12:53 51.787234 -93.962879 345 8487ft 201kts
04-Jul-19 12:54 51.842491 -93.978932 344 8487ft 201kts
04-Jul-19 12:55 51.897309 -93.996812 344 8483ft 201kts
04-Jul-19 12:56 51.952079 -94.014553 344 8482ft 201kts
04-Jul-19 12:57 52.007041 -94.032201 344 8477ft 201kts
04-Jul-19 12:58 52.061809 -94.049826 344 8483ft 200kts
04-Jul-19 12:58 52.107413 -94.064533 344 8497ft 200kts
04-Jul-19 13:00 52.171460 -94.085321 344 8494ft 201kts
04-Jul-19 13:01 52.227097 -94.103569 344 8491ft 209kts
04-Jul-19 13:01 52.273585 -94.118665 344 8485ft 202kts
04-Jul-19 13:03 52.337848 -94.139605 344 8482ft 203kts
04-Jul-19 13:03 52.383876 -94.154595 344 8479ft 201kts
04-Jul-19 13:04 52.439061 -94.172675 344 8479ft 204kts
04-Jul-19 13:06 52.503604 -94.193711 344 8472ft 201kts
04-Jul-19 13:06 52.549484 -94.208878 344 8474ft 203kts
04-Jul-19 13:07 52.604948 -94.227326 343 8473ft 204kts
04-Jul-19 13:09 52.669348 -94.248827 344 8471ft 202kts
04-Jul-19 13:09 52.715358 -94.264087 344 8470ft 202kts
04-Jul-19 13:10 52.770489 -94.282468 343 8470ft 201kts
04-Jul-19 13:11 52.826035 -94.301274 343 8469ft 209kts
04-Jul-19 13:12 52.882457 -94.320105 343 8467ft 206kts
04-Jul-19 13:13 52.938464 -94.338906 343 8468ft 210kts
04-Jul-19 13:14 52.994799 -94.357697 343 8466ft 204kts
04-Jul-19 13:15 53.050557 -94.376391 343 8468ft 206kts
04-Jul-19 13:16 53.106770 -94.395545 343 8462ft 210kts
04-Jul-19 13:17 53.163535 -94.414922 343 8462ft 208kts
04-Jul-19 13:18 53.220081 -94.434193 343 8458ft 210kts
04-Jul-19 13:19 53.276425 -94.453401 343 8458ft 205kts
04-Jul-19 13:20 53.332371 -94.472634 343 8453ft 203kts
04-Jul-19 13:21 53.387470 -94.491577 342 8459ft 210kts
04-Jul-19 13:22 53.444071 -94.510946 343 8452ft 204kts
04-Jul-19 13:23 53.499893 -94.530288 342 8501ft 210kts
04-Jul-19 13:24 53.556215 -94.549786 342 8497ft 204kts
04-Jul-19 13:25 53.611932 -94.569093 342 8495ft 204kts
04-Jul-19 13:26 53.667602 -94.588389 342 8499ft 204kts
04-Jul-19 13:27 53.723296 -94.607712 342 8499ft 204kts
04-Jul-19 13:28 53.778918 -94.627261 342 8498ft 204kts
04-Jul-19 13:29 53.834457 -94.646703 342 8498ft 204kts
04-Jul-19 13:30 53.886593 -94.679871 328 8497ft 199kts
04-Jul-19 13:31 53.936590 -94.720246 328 8500ft 199kts
04-Jul-19 13:32 53.986670 -94.760643 328 8500ft 199kts
04-Jul-19 13:33 54.037267 -94.801695 328 8506ft 207kts
04-Jul-19 13:34 54.088964 -94.843657 328 8502ft 206kts
04-Jul-19 13:35 54.140176 -94.885448 329 8494ft 202kts
04-Jul-19 13:36 54.191590 -94.927165 328 8191ft 211kts
04-Jul-19 13:37 54.244684 -94.970850 328 7528ft 213kts
04-Jul-19 13:38 54.298401 -95.014831 328 6881ft 217kts
04-Jul-19 13:39 54.351514 -95.058543 328 6500ft 203kts
04-Jul-19 13:40 54.401959 -95.100365 328 6496ft 199kts
04-Jul-19 13:41 54.452429 -95.141999 328 6500ft 206kts
04-Jul-19 13:42 54.503447 -95.184333 328 6502ft 203kts
04-Jul-19 13:43 54.554155 -95.226532 328 6495ft 201kts
04-Jul-19 13:44 54.604255 -95.268398 329 6498ft 200kts
04-Jul-19 13:45 54.654443 -95.310220 328 6498ft 199kts
04-Jul-19 13:46 54.704479 -95.352267 328 6495ft 199kts
04-Jul-19 13:47 54.754446 -95.394303 328 6492ft 200kts
04-Jul-19 13:48 54.804449 -95.436589 328 6500ft 200kts
04-Jul-19 13:49 54.854609 -95.478910 328 6497ft 200kts
04-Jul-19 13:50 54.904640 -95.521302 328 6495ft 200kts
04-Jul-19 13:51 54.954728 -95.563951 328 6499ft 200kts
04-Jul-19 13:52 55.004858 -95.606720 328 6497ft 200kts
04-Jul-19 13:53 55.055045 -95.649722 327 6499ft 201kts
04-Jul-19 13:54 55.105385 -95.692785 328 6496ft 201kts
04-Jul-19 13:55 55.155623 -95.736050 327 6496ft 201kts
04-Jul-19 13:56 55.206554 -95.780213 327 6275ft 211kts
04-Jul-19 13:57 55.259552 -95.825963 328 5578ft 213kts
04-Jul-19 13:58 55.312735 -95.872125 328 4884ft 212kts
04-Jul-19 13:59 55.364851 -95.917625 328 4497ft 203kts
04-Jul-19 14:00 55.414987 -95.961143 328 4491ft 199kts
04-Jul-19 14:01 55.464652 -96.004472 328 4490ft 199kts
04-Jul-19 14:02 55.514178 -96.048000 327 4490ft 198kts
04-Jul-19 14:03 55.563795 -96.091637 327 4491ft 199kts
04-Jul-19 14:04 55.613339 -96.135585 327 4492ft 199kts
04-Jul-19 14:05 55.663145 -96.179647 327 4486ft 199kts
04-Jul-19 14:06 55.712681 -96.223791 327 4483ft 199kts
04-Jul-19 14:07 55.762421 -96.267976 327 4486ft 199kts
04-Jul-19 14:08 55.812110 -96.312288 327 4483ft 199kts
04-Jul-19 14:09 55.861709 -96.356799 327 4479ft 199kts
04-Jul-19 14:10 55.911171 -96.401326 327 4480ft 199kts
04-Jul-19 14:11 55.960553 -96.445872 327 4481ft 198kts
04-Jul-19 14:12 56.010132 -96.490514 328 4475ft 199kts
04-Jul-19 14:13 56.044237 -96.557476 281 4487ft 185kts
04-Jul-19 14:14 56.057213 -96.645986 281 4496ft 183kts
04-Jul-19 14:15 56.070541 -96.734270 281 4479ft 183kts
04-Jul-19 14:16 56.083785 -96.821810 281 4499ft 181kts
04-Jul-19 14:17 56.096856 -96.909150 281 4499ft 181kts
04-Jul-19 14:18 56.109770 -96.996061 282 4503ft 180kts
04-Jul-19 14:19 56.122661 -97.083035 281 4503ft 179kts
04-Jul-19 14:20 56.135257 -97.169420 282 4495ft 178kts
04-Jul-19 14:21 56.147942 -97.254963 282 4504ft 177kts
04-Jul-19 14:22 56.160193 -97.340411 282 4501ft 175kts
04-Jul-19 14:23 56.172365 -97.424860 281 4499ft 174kts
04-Jul-19 14:24 56.184415 -97.508826 282 4501ft 172kts
04-Jul-19 14:25 56.196326 -97.592177 282 4501ft 171kts
04-Jul-19 14:26 56.208226 -97.675109 282 4502ft 170kts
04-Jul-19 14:27 56.219862 -97.757503 282 4502ft 170kts
04-Jul-19 14:28 56.231516 -97.839851 281 4506ft 169kts
04-Jul-19 14:29 56.242938 -97.922046 281 4502ft 169kts
04-Jul-19 14:30 56.254375 -98.004101 282 4504ft 169kts
04-Jul-19 14:31 56.265754 -98.086346 281 4504ft 169kts
04-Jul-19 14:32 56.277048 -98.168327 282 4502ft 169kts
04-Jul-19 14:33 56.288388 -98.250688 282 4502ft 169kts
04-Jul-19 14:34 56.299601 -98.333227 281 4502ft 170kts
04-Jul-19 14:35 56.310709 -98.416920 282 4502ft 172kts
04-Jul-19 14:36 56.322177 -98.500642 282 4502ft 172kts
04-Jul-19 14:37 56.333557 -98.585078 283 4518ft 173kts
04-Jul-19 14:38 56.344875 -98.669851 283 4520ft 174kts
04-Jul-19 14:39 56.356245 -98.755370 283 4523ft 176kts
04-Jul-19 14:40 56.367463 -98.841328 283 4527ft 177kts
04-Jul-19 14:41 56.378827 -98.928051 284 4529ft 177kts
04-Jul-19 14:42 56.390154 -99.015218 284 4533ft 178kts
04-Jul-19 14:43 56.401485 -99.102634 284 4536ft 179kts
04-Jul-19 14:44 56.412698 -99.190582 284 4541ft 180kts
04-Jul-19 14:45 56.424017 -99.278923 284 4542ft 180kts
04-Jul-19 14:46 56.435278 -99.367397 285 4547ft 181kts
04-Jul-19 14:47 56.446474 -99.456060 285 4553ft 181kts
04-Jul-19 14:48 56.457759 -99.545243 285 4554ft 181kts
04-Jul-19 14:49 56.468745 -99.634412 285 4557ft 182kts
04-Jul-19 14:50 56.479802 -99.723218 284 4562ft 181kts
04-Jul-19 14:51 56.490594 -99.813061 285 4567ft 181kts
04-Jul-19 14:52 56.502062 -99.902548 284 4500ft 183kts
04-Jul-19 14:53 56.514199 -99.991606 296 4506ft 180kts
04-Jul-19 14:54 56.537910 -100.072108 300 4500ft 181kts
04-Jul-19 14:55 56.562223 -100.151794 300 4514ft 181kts
04-Jul-19 14:56 56.585659 -100.232106 298 4508ft 181kts
04-Jul-19 14:57 56.609700 -100.312693 300 4520ft 182kts
04-Jul-19 14:58 56.633883 -100.393527 300 4516ft 181kts
04-Jul-19 14:59 56.657518 -100.474519 300 4520ft 181kts
04-Jul-19 15:00 56.681435 -100.555425 301 4518ft 181kts
04-Jul-19 15:02 56.705131 -100.636338 299 4520ft 182kts
04-Jul-19 15:03 56.728917 -100.717925 301 4520ft 182kts
04-Jul-19 15:04 56.752689 -100.799631 300 4521ft 182kts
04-Jul-19 15:05 56.776464 -100.881419 300 4524ft 182kts
04-Jul-19 15:06 56.800118 -100.963348 300 4519ft 183kts
04-Jul-19 15:07 56.823831 -101.045659 301 4522ft 183kts
04-Jul-19 15:08 56.857213 -101.112604 320 4524ft 179kts
04-Jul-19 15:09 56.895326 -101.171803 322 4521ft 179kts
04-Jul-19 15:10 56.933134 -101.231949 321 4524ft 179kts
04-Jul-19 15:11 56.971209 -101.292645 320 4495ft 180kts
04-Jul-19 15:12 57.009042 -101.352504 321 4504ft 180kts
04-Jul-19 15:13 57.046853 -101.413298 320 4500ft 179kts
04-Jul-19 15:14 57.084638 -101.473990 320 4492ft 180kts
04-Jul-19 15:15 57.122412 -101.534557 320 4636ft 175kts
04-Jul-19 15:16 57.158098 -101.591920 321 5300ft 169kts
04-Jul-19 15:17 57.193297 -101.648483 322 5988ft 166kts
04-Jul-19 15:18 57.228276 -101.704677 322 6668ft 166kts
04-Jul-19 15:18 57.257157 -101.751641 322 7238ft 166kts
04-Jul-19 15:20 57.297654 -101.817786 322 8032ft 166kts
04-Jul-19 15:21 57.332190 -101.874101 323 8711ft 165kts
04-Jul-19 15:22 57.366291 -101.929829 322 9397ft 163kts
04-Jul-19 15:23 57.400044 -101.985385 323 10083ft 160kts
04-Jul-19 15:23 57.427928 -102.031231 323 10522ft 163kts
04-Jul-19 15:25 57.469174 -102.098887 323 10536ft 171kts
04-Jul-19 15:25 57.498959 -102.148138 323 10538ft 172kts
04-Jul-19 15:26 57.534592 -102.207252 323 10540ft 172kts
04-Jul-19 15:28 57.576281 -102.276527 323 10542ft 172kts
04-Jul-19 15:28 57.606140 -102.326261 323 10544ft 172kts
04-Jul-19 15:29 57.641819 -102.385835 323 10546ft 172kts
04-Jul-19 15:30 57.677485 -102.445596 323 10548ft 172kts
04-Jul-19 15:31 57.713171 -102.505595 322 10550ft 172kts
04-Jul-19 15:32 57.748702 -102.565537 323 10554ft 172kts
04-Jul-19 15:33 57.784431 -102.625725 322 10557ft 173kts
04-Jul-19 15:34 57.820319 -102.686695 323 10556ft 173kts
04-Jul-19 15:35 57.855970 -102.747025 322 10558ft 173kts
04-Jul-19 15:36 57.891743 -102.808024 322 10561ft 173kts
04-Jul-19 15:37 57.927449 -102.869076 322 10563ft 174kts
04-Jul-19 15:38 57.963328 -102.930440 322 10566ft 174kts
04-Jul-19 15:39 57.999185 -102.992131 322 10567ft 174kts
04-Jul-19 15:40 58.035383 -103.054516 324 10569ft 177kts
04-Jul-19 15:41 58.071827 -103.117379 324 10571ft 176kts
04-Jul-19 15:42 58.108003 -103.180634 321 10574ft 179kts
04-Jul-19 15:43 58.141006 -103.252209 318 10576ft 181kts
04-Jul-19 15:44 58.173816 -103.324289 318 10578ft 180kts
04-Jul-19 15:45 58.206564 -103.396401 317 10580ft 181kts
04-Jul-19 15:46 58.239523 -103.469207 317 10582ft 181kts
04-Jul-19 15:47 58.272253 -103.541742 317 10584ft 181kts
04-Jul-19 15:48 58.305056 -103.614668 317 10585ft 181kts
04-Jul-19 15:49 58.337632 -103.687352 317 10588ft 181kts
04-Jul-19 15:50 58.370326 -103.760507 317 10589ft 181kts
04-Jul-19 15:51 58.403057 -103.833557 317 10591ft 181kts
04-Jul-19 15:52 58.435583 -103.906797 317 10593ft 181kts
04-Jul-19 15:53 58.468092 -103.980414 317 10594ft 181kts
04-Jul-19 15:54 58.500755 -104.054411 317 10596ft 182kts
04-Jul-19 15:55 58.533375 -104.128599 317 10597ft 182kts
04-Jul-19 15:56 58.566053 -104.203076 317 10600ft 183kts
04-Jul-19 15:57 58.598716 -104.278076 317 10601ft 184kts
04-Jul-19 15:58 58.631571 -104.353549 317 10601ft 184kts
04-Jul-19 15:59 58.664435 -104.428910 317 10604ft 183kts
04-Jul-19 16:00 58.697138 -104.504350 317 10606ft 182kts
04-Jul-19 16:01 58.729605 -104.579506 317 10608ft 184kts
04-Jul-19 16:02 58.762841 -104.656633 317 10609ft 192kts
04-Jul-19 16:03 58.797271 -104.737036 317 10611ft 195kts
04-Jul-19 16:04 58.831677 -104.817880 317 10611ft 195kts
04-Jul-19 16:05 58.866128 -104.898485 317 10540ft 197kts
04-Jul-19 16:06 58.900664 -104.979840 316 10502ft 193kts
04-Jul-19 16:07 58.935561 -105.062345 315 9949ft 201kts
04-Jul-19 16:08 58.971378 -105.147406 316 9266ft 203kts
04-Jul-19 16:09 59.006940 -105.232031 315 8606ft 201kts
04-Jul-19 16:10 59.041024 -105.313561 316 8500ft 190kts
04-Jul-19 16:11 59.074288 -105.393031 315 8502ft 189kts
04-Jul-19 16:12 59.107441 -105.472800 315 8506ft 189kts
04-Jul-19 16:13 59.140526 -105.552687 315 8499ft 189kts
04-Jul-19 16:14 59.173633 -105.632996 315 8500ft 189kts
04-Jul-19 16:15 59.206626 -105.713298 315 8497ft 189kts
04-Jul-19 16:16 59.239591 -105.793306 315 8509ft 189kts
04-Jul-19 16:17 59.263001 -105.886822 292 8509ft 199kts
04-Jul-19 16:18 59.278218 -105.992269 292 8515ft 206kts
04-Jul-19 16:19 59.293495 -106.099055 292 8511ft 200kts
04-Jul-19 16:20 59.308609 -106.205053 292 8508ft 202kts
04-Jul-19 16:21 59.323506 -106.310894 291 8512ft 201kts
04-Jul-19 16:22 59.338191 -106.416032 291 8511ft 200kts
04-Jul-19 16:23 59.352916 -106.521560 291 8514ft 200kts
04-Jul-19 16:24 59.367512 -106.627533 291 8515ft 201kts
04-Jul-19 16:25 59.382062 -106.733412 291 8514ft 200kts
04-Jul-19 16:26 59.396498 -106.839231 291 8511ft 200kts
04-Jul-19 16:27 59.410935 -106.945601 291 8507ft 208kts
04-Jul-19 16:28 59.425428 -107.053991 290 8501ft 201kts
04-Jul-19 16:29 59.439684 -107.160041 291 8504ft 200kts
04-Jul-19 16:30 59.453824 -107.266307 290 8502ft 201kts
04-Jul-19 16:31 59.467819 -107.372989 289 8505ft 205kts
04-Jul-19 16:32 59.481895 -107.480770 290 8509ft 201kts
04-Jul-19 16:33 59.495666 -107.586312 290 8517ft 205kts
04-Jul-19 16:34 59.509717 -107.695074 289 8521ft 208kts
04-Jul-19 16:35 59.523593 -107.804399 289 8518ft 202kts
04-Jul-19 16:36 59.537199 -107.911482 289 8523ft 201kts
04-Jul-19 16:37 59.550803 -108.018736 289 8527ft 201kts
04-Jul-19 16:38 59.564238 -108.126171 289 8531ft 201kts
04-Jul-19 16:39 59.577580 -108.233251 289 8534ft 201kts
04-Jul-19 16:40 59.590724 -108.340702 288 8538ft 201kts
04-Jul-19 16:41 59.603922 -108.448350 289 8542ft 201kts
04-Jul-19 16:42 59.617066 -108.556040 288 8543ft 201kts
04-Jul-19 16:43 59.630034 -108.663758 288 8502ft 201kts
04-Jul-19 16:44 59.642944 -108.771505 288 8503ft 201kts
04-Jul-19 16:45 59.655806 -108.879519 287 8516ft 204kts
04-Jul-19 16:46 59.668682 -108.988894 288 8508ft 201kts
04-Jul-19 16:47 59.681303 -109.096790 287 8512ft 202kts
04-Jul-19 16:48 59.693902 -109.205437 287 8519ft 204kts
04-Jul-19 16:49 59.706543 -109.314667 287 8515ft 201kts
04-Jul-19 16:50 59.718887 -109.422712 287 8517ft 201kts
04-Jul-19 16:51 59.731147 -109.531279 287 8519ft 201kts
04-Jul-19 16:52 59.743414 -109.640281 287 8523ft 208kts
04-Jul-19 16:53 59.755786 -109.751155 287 8524ft 205kts
04-Jul-19 16:54 59.767886 -109.860678 286 8521ft 202kts
04-Jul-19 16:55 59.779763 -109.969620 287 8525ft 202kts
04-Jul-19 16:56 59.791659 -110.078317 286 8526ft 202kts
04-Jul-19 16:57 59.803390 -110.187353 286 8534ft 202kts
04-Jul-19 16:58 59.815020 -110.296616 286 8534ft 201kts
04-Jul-19 16:59 59.826656 -110.405365 286 8539ft 201kts
04-Jul-19 17:00 59.838160 -110.514516 286 8537ft 201kts
04-Jul-19 17:01 59.849458 -110.623471 286 8535ft 201kts
04-Jul-19 17:02 59.860717 -110.732766 285 8539ft 201kts
04-Jul-19 17:03 59.871821 -110.841608 286 8542ft 201kts
04-Jul-19 17:04 59.882959 -110.950574 285 8543ft 201kts
04-Jul-19 17:05 59.893995 -111.059658 285 8541ft 200kts
04-Jul-19 17:06 59.904884 -111.168855 285 8543ft 200kts
04-Jul-19 17:07 59.915604 -111.277576 285 8544ft 200kts
04-Jul-19 17:08 59.926281 -111.386662 285 8545ft 200kts
04-Jul-19 17:09 59.936871 -111.495765 284 8544ft 200kts
04-Jul-19 17:10 59.947416 -111.605251 284 8543ft 200kts
04-Jul-19 17:11 59.957796 -111.714170 284 8546ft 200kts
04-Jul-19 17:12 59.968121 -111.823450 284 8545ft 200kts
04-Jul-19 17:13 60.002068 -111.902021 327 8544ft 190kts
04-Jul-19 17:14 60.045108 -111.963570 327 8544ft 190kts
04-Jul-19 17:15 60.087975 -112.025525 327 8544ft 190kts
04-Jul-19 17:16 60.130810 -112.087773 327 8550ft 190kts
04-Jul-19 17:17 60.173671 -112.150273 327 8555ft 190kts
04-Jul-19 17:18 60.216430 -112.212871 327 8556ft 190kts
04-Jul-19 17:19 60.259145 -112.275642 327 8556ft 190kts
04-Jul-19 17:20 60.301883 -112.338732 326 8559ft 190kts
04-Jul-19 17:22 60.344626 -112.401709 327 8561ft 190kts
04-Jul-19 17:23 60.387338 -112.464937 326 8563ft 190kts
04-Jul-19 17:24 60.429868 -112.528182 326 8566ft 190kts
04-Jul-19 17:25 60.472350 -112.591605 326 8568ft 189kts
04-Jul-19 17:26 60.514916 -112.655245 326 8571ft 190kts
04-Jul-19 17:27 60.557445 -112.719103 326 8574ft 190kts
04-Jul-19 17:28 60.599872 -112.783001 326 8576ft 189kts
04-Jul-19 17:29 60.642295 -112.847137 326 8579ft 190kts
04-Jul-19 17:30 60.684804 -112.911699 326 8582ft 190kts
04-Jul-19 17:31 60.727199 -112.976351 326 8583ft 190kts
04-Jul-19 17:32 60.769609 -113.041163 326 8587ft 190kts
04-Jul-19 17:33 60.811922 -113.106035 326 8591ft 190kts
04-Jul-19 17:34 60.854283 -113.171259 326 8593ft 190kts
04-Jul-19 17:35 60.896721 -113.236599 325 8595ft 191kts
04-Jul-19 17:36 60.939601 -113.303084 325 8514ft 199kts
04-Jul-19 17:37 60.982921 -113.370513 325 8499ft 191kts
04-Jul-19 17:38 61.025286 -113.436581 325 8498ft 191kts
04-Jul-19 17:39 61.067598 -113.502776 325 8499ft 191kts
04-Jul-19 17:40 61.109896 -113.569198 325 8499ft 191kts
04-Jul-19 17:40 61.145302 -113.624981 325 8498ft 191kts
04-Jul-19 17:42 61.202349 -113.668621 346 8498ft 188kts
04-Jul-19 17:43 61.252726 -113.698998 346 8499ft 188kts
04-Jul-19 17:43 61.294559 -113.724528 345 8500ft 189kts
04-Jul-19 17:45 61.353258 -113.762242 344 8500ft 189kts
04-Jul-19 17:45 61.394838 -113.791017 344 8501ft 189kts
04-Jul-19 17:47 61.453187 -113.831071 344 8503ft 189kts
04-Jul-19 17:47 61.494983 -113.859785 344 8500ft 189kts
04-Jul-19 17:48 61.546012 -113.894906 344 8101ft 199kts
04-Jul-19 17:49 61.598821 -113.931454 343 7426ft 200kts
04-Jul-19 17:50 61.651726 -113.968199 343 6749ft 199kts
04-Jul-19 17:51 61.704170 -114.004726 343 6075ft 198kts
04-Jul-19 17:52 61.756250 -114.041131 342 5401ft 196kts
04-Jul-19 17:53 61.807883 -114.077370 341 4725ft 194kts
04-Jul-19 17:54 61.858854 -114.113231 340 4049ft 191kts
04-Jul-19 17:55 61.909048 -114.148683 339 3373ft 188kts
04-Jul-19 17:56 61.958260 -114.183592 339 2700ft 186kts
04-Jul-19 17:57 62.006991 -114.218263 338 2213ft 180kts
04-Jul-19 17:58 62.053846 -114.251708 338 2206ft 176kts
04-Jul-19 17:59 62.100118 -114.284850 338 2206ft 176kts
04-Jul-19 18:00 62.146569 -114.318217 338 2206ft 176kts
04-Jul-19 18:01 62.193062 -114.351726 338 2207ft 176kts
04-Jul-19 18:02 62.239759 -114.385488 338 2201ft 177kts
04-Jul-19 18:03 62.287072 -114.415668 351 2199ft 179kts
04-Jul-19 18:04 62.337136 -114.423242 353 2199ft 181kts
04-Jul-19 18:05 62.386284 -114.430638 353 2150ft 157kts
04-Jul-19 18:06 62.427027 -114.436896 355 1223ft 135kts
04-Jul-19 18:07 62.458498 -114.441767 357 682ft 94kts
04-Jul-19 18:08 62.469097 -114.444889 297 680ft 10kts
04-Jul-19 18:09 62.472042 -114.452314 18 680ft 15kts
04-Jul-19 18:10 62.473983 -114.459188 295 680ft 13kts
04-Jul-19 18:11 62.474252 -114.458882 120 680ft 0kts
04-Jul-19 18:12 62.474252 -114.458882 120 680ft 0kts
04-Jul-19 18:13 62.474252 -114.458882 120 680ft 0kts
04-Jul-19 18:14 62.474252 -114.458882 120 680ft 0kts
04-Jul-19 18:15 62.474252 -114.458882 120 680ft 0kts

Navigation Log

Ident Type
Flight plan parsing failed, navigation log unavailable